PWSweather.com
Personal Weather Stations
Station Observations
KOHAVON11
Long Road Station, Avon, OH 44011

Long Road StationAvon, OH 44011

Lat: 41.437, Lon: -82.0477

Elevation: 686

Station Type: Davis Vantage Pro2

http://www.avon-weather.com

High Low Average
Temperature 54.7°F12.6°C 32.9°F0.5°C 37.7°F3.2°C
Dew Point 47.9°F8.8°C 29.2°F-1.6°C 33.0°F0.6°C
Winds 28.0 mph 45.1 kmh Calm Calm 6.0 mph SSW9.7 kmh SSW
Wind Gusts 41.0 mph66.0 kmh -- 12.0 mph19.3 kmh
Humidity 87% 70% 83%
Pressure 30.27 in1025.1 mb 29.57 in1001.4 mb -
Precipitation 0.00 in0.0 mm - -
Hour Temp Dew Point Humidity Winds Wind Gusts Pressure Precip Precip Rate Daily Precip Total
12:02 AM 54.7°F12.6°C 47.9°F8.8°C 78% 8.0 mph WSW12.9 kmh WSW 28.0 mph45.1 kmh 29.57 in1001.4 mb 0.00 in0.0 mm 0.00 in0.0 mm 0.00 in0.0 mm
12:07 AM 54.2°F12.3°C 47.4°F8.6°C 78% 13.0 mph SW20.9 kmh SW 26.0 mph41.8 kmh 29.58 in1001.7 mb 0.00 in0.0 mm 0.00 in0.0 mm 0.00 in0.0 mm
12:12 AM 53.8°F12.1°C 46.6°F8.1°C 77% 16.0 mph WSW25.7 kmh WSW 26.0 mph41.8 kmh 29.58 in1001.7 mb 0.00 in0.0 mm 0.00 in0.0 mm 0.00 in0.0 mm
12:17 AM 53.4°F11.9°C 46.3°F7.9°C 77% 14.0 mph WSW22.5 kmh WSW 26.0 mph41.8 kmh 29.58 in1001.7 mb 0.00 in0.0 mm 0.00 in0.0 mm 0.00 in0.0 mm
12:22 AM 53.1°F11.7°C 46.0°F7.8°C 77% 8.0 mph WSW12.9 kmh WSW 29.0 mph46.7 kmh 29.58 in1001.7 mb 0.00 in0.0 mm 0.00 in0.0 mm 0.00 in0.0 mm
12:27 AM 52.8°F11.6°C 45.7°F7.6°C 77% 11.0 mph SW17.7 kmh SW 29.0 mph46.7 kmh 29.60 in1002.4 mb 0.00 in0.0 mm 0.00 in0.0 mm 0.00 in0.0 mm
12:32 AM 52.4°F11.3°C 44.9°F7.2°C 76% 10.0 mph WSW16.1 kmh WSW 32.0 mph51.5 kmh 29.61 in1002.7 mb 0.00 in0.0 mm 0.00 in0.0 mm 0.00 in0.0 mm
12:37 AM 52.1°F11.2°C 44.6°F7.0°C 76% 17.0 mph WSW27.4 kmh WSW 32.0 mph51.5 kmh 29.61 in1002.7 mb 0.00 in0.0 mm 0.00 in0.0 mm 0.00 in0.0 mm
12:42 AM 51.8°F11.0°C 44.4°F6.9°C 76% 8.0 mph SW12.9 kmh SW 32.0 mph51.5 kmh 29.62 in1003.0 mb 0.00 in0.0 mm 0.00 in0.0 mm 0.00 in0.0 mm
12:47 AM 51.5°F10.8°C 43.7°F6.5°C 75% 15.0 mph WSW24.1 kmh WSW 32.0 mph51.5 kmh 29.63 in1003.4 mb 0.00 in0.0 mm 0.00 in0.0 mm 0.00 in0.0 mm
12:52 AM 51.2°F10.7°C 43.1°F6.2°C 74% 9.0 mph SW14.5 kmh SW 31.0 mph49.9 kmh 29.63 in1003.4 mb 0.00 in0.0 mm 0.00 in0.0 mm 0.00 in0.0 mm
12:57 AM 51.0°F10.6°C 42.5°F5.8°C 73% 25.0 mph WSW40.2 kmh WSW 31.0 mph49.9 kmh 29.64 in1003.7 mb 0.00 in0.0 mm 0.00 in0.0 mm 0.00 in0.0 mm
01:02 AM 50.8°F10.4°C 41.9°F5.5°C 72% 11.0 mph WSW17.7 kmh WSW 27.0 mph43.5 kmh 29.64 in1003.7 mb 0.00 in0.0 mm 0.00 in0.0 mm 0.00 in0.0 mm
01:07 AM 50.7°F10.4°C 41.9°F5.5°C 72% 12.0 mph WSW19.3 kmh WSW 27.0 mph43.5 kmh 29.65 in1004.1 mb 0.00 in0.0 mm 0.00 in0.0 mm 0.00 in0.0 mm
01:12 AM 50.5°F10.3°C 41.7°F5.4°C 72% 13.0 mph SW20.9 kmh SW 24.0 mph38.6 kmh 29.66 in1004.4 mb 0.00 in0.0 mm 0.00 in0.0 mm 0.00 in0.0 mm
01:17 AM 50.3°F10.2°C 41.1°F5.1°C 71% 10.0 mph WSW16.1 kmh WSW 24.0 mph38.6 kmh 29.67 in1004.7 mb 0.00 in0.0 mm 0.00 in0.0 mm 0.00 in0.0 mm
01:22 AM 50.1°F10.1°C 40.5°F4.7°C 70% 22.0 mph SW35.4 kmh SW 30.0 mph48.3 kmh 29.67 in1004.7 mb 0.00 in0.0 mm 0.00 in0.0 mm 0.00 in0.0 mm
01:27 AM 49.8°F9.9°C 40.2°F4.6°C 70% 10.0 mph SW16.1 kmh SW 30.0 mph48.3 kmh 29.68 in1005.1 mb 0.00 in0.0 mm 0.00 in0.0 mm 0.00 in0.0 mm
01:32 AM 49.6°F9.8°C 40.1°F4.5°C 70% 14.0 mph SW22.5 kmh SW 30.0 mph48.3 kmh 29.68 in1005.1 mb 0.00 in0.0 mm 0.00 in0.0 mm 0.00 in0.0 mm
01:37 AM 49.4°F9.7°C 39.9°F4.4°C 70% 16.0 mph W25.7 kmh W 34.0 mph54.7 kmh 29.68 in1005.1 mb 0.00 in0.0 mm 0.00 in0.0 mm 0.00 in0.0 mm
01:42 AM 49.2°F9.6°C 40.0°F4.4°C 71% 20.0 mph WSW32.2 kmh WSW 34.0 mph54.7 kmh 29.69 in1005.4 mb 0.00 in0.0 mm 0.00 in0.0 mm 0.00 in0.0 mm
01:47 AM 48.9°F9.4°C 39.8°F4.3°C 71% 24.0 mph WSW38.6 kmh WSW 34.0 mph54.7 kmh 29.70 in1005.8 mb 0.00 in0.0 mm 0.00 in0.0 mm 0.00 in0.0 mm
01:52 AM 48.6°F9.2°C 39.8°F4.3°C 72% 15.0 mph WSW24.1 kmh WSW 34.0 mph54.7 kmh 29.70 in1005.8 mb 0.00 in0.0 mm 0.00 in0.0 mm 0.00 in0.0 mm
01:57 AM 48.3°F9.1°C 39.9°F4.4°C 73% 25.0 mph WSW40.2 kmh WSW 34.0 mph54.7 kmh 29.71 in1006.1 mb 0.00 in0.0 mm 0.00 in0.0 mm 0.00 in0.0 mm
02:02 AM 47.8°F8.8°C 40.5°F4.7°C 76% 25.0 mph W40.2 kmh W 34.0 mph54.7 kmh 29.72 in1006.4 mb 0.00 in0.0 mm 0.00 in0.0 mm 0.00 in0.0 mm
02:07 AM 47.3°F8.5°C 40.7°F4.8°C 78% 26.0 mph WSW41.8 kmh WSW 32.0 mph51.5 kmh 29.73 in1006.8 mb 0.00 in0.0 mm 0.00 in0.0 mm 0.00 in0.0 mm
02:12 AM 46.8°F8.2°C 41.2°F5.1°C 81% 9.0 mph W14.5 kmh W 32.0 mph51.5 kmh 29.74 in1007.1 mb 0.00 in0.0 mm 0.00 in0.0 mm 0.00 in0.0 mm
02:17 AM 46.3°F7.9°C 41.1°F5.1°C 82% 28.0 mph W45.1 kmh W 28.0 mph45.1 kmh 29.74 in1007.1 mb 0.00 in0.0 mm 0.00 in0.0 mm 0.00 in0.0 mm
02:22 AM 45.9°F7.7°C 40.7°F4.8°C 82% 18.0 mph W29.0 kmh W 28.0 mph45.1 kmh 29.75 in1007.5 mb 0.00 in0.0 mm 0.00 in0.0 mm 0.00 in0.0 mm
02:27 AM 45.6°F7.6°C 40.4°F4.7°C 82% 19.0 mph WSW30.6 kmh WSW 35.0 mph56.3 kmh 29.75 in1007.5 mb 0.00 in0.0 mm 0.00 in0.0 mm 0.00 in0.0 mm
02:32 AM 45.4°F7.4°C 40.2°F4.6°C 82% 13.0 mph WSW20.9 kmh WSW 35.0 mph56.3 kmh 29.76 in1007.8 mb 0.00 in0.0 mm 0.00 in0.0 mm 0.00 in0.0 mm
02:37 AM 45.3°F7.4°C 40.1°F4.5°C 82% 23.0 mph WSW37.0 kmh WSW 35.0 mph56.3 kmh 29.77 in1008.1 mb 0.00 in0.0 mm 0.00 in0.0 mm 0.00 in0.0 mm
02:42 AM 45.2°F7.3°C 39.7°F4.3°C 81% 20.0 mph WSW32.2 kmh WSW 35.0 mph56.3 kmh 29.77 in1008.1 mb 0.00 in0.0 mm 0.00 in0.0 mm 0.00 in0.0 mm
02:47 AM 45.1°F7.3°C 39.6°F4.2°C 81% 19.0 mph WSW30.6 kmh WSW 41.0 mph66.0 kmh 29.78 in1008.5 mb 0.00 in0.0 mm 0.00 in0.0 mm 0.00 in0.0 mm
02:52 AM 45.0°F7.2°C 39.8°F4.3°C 82% 10.0 mph WSW16.1 kmh WSW 41.0 mph66.0 kmh 29.78 in1008.5 mb 0.00 in0.0 mm 0.00 in0.0 mm 0.00 in0.0 mm
02:57 AM 44.9°F7.2°C 39.7°F4.3°C 82% 7.0 mph WSW11.3 kmh WSW 41.0 mph66.0 kmh 29.79 in1008.8 mb 0.00 in0.0 mm 0.00 in0.0 mm 0.00 in0.0 mm
03:02 AM 44.8°F7.1°C 39.6°F4.2°C 82% 19.0 mph WSW30.6 kmh WSW 41.0 mph66.0 kmh 29.80 in1009.1 mb 0.00 in0.0 mm 0.00 in0.0 mm 0.00 in0.0 mm
03:07 AM 44.6°F7.0°C 39.4°F4.1°C 82% 10.0 mph W16.1 kmh W 23.0 mph37.0 kmh 29.80 in1009.1 mb 0.00 in0.0 mm 0.00 in0.0 mm 0.00 in0.0 mm
03:12 AM 43.9°F6.6°C 38.4°F3.6°C 81% 13.0 mph W20.9 kmh W 25.0 mph40.2 kmh 29.82 in1009.8 mb 0.00 in0.0 mm 0.00 in0.0 mm 0.00 in0.0 mm
03:17 AM 42.6°F5.9°C 37.1°F2.8°C 81% 19.0 mph WNW30.6 kmh WNW 25.0 mph40.2 kmh 29.83 in1010.2 mb 0.00 in0.0 mm 0.00 in0.0 mm 0.00 in0.0 mm
03:22 AM 41.2°F5.1°C 36.1°F2.3°C 82% 9.0 mph W14.5 kmh W 25.0 mph40.2 kmh 29.83 in1010.2 mb 0.00 in0.0 mm 0.00 in0.0 mm 0.00 in0.0 mm
03:27 AM 40.3°F4.6°C 35.5°F1.9°C 83% 14.0 mph WSW22.5 kmh WSW 25.0 mph40.2 kmh 29.84 in1010.5 mb 0.00 in0.0 mm 0.00 in0.0 mm 0.00 in0.0 mm
03:32 AM 39.6°F4.2°C 34.8°F1.6°C 83% 9.0 mph NW14.5 kmh NW 22.0 mph35.4 kmh 29.85 in1010.8 mb 0.00 in0.0 mm 0.00 in0.0 mm 0.00 in0.0 mm
03:37 AM 39.1°F3.9°C 34.7°F1.5°C 84% 6.0 mph WNW9.7 kmh WNW 25.0 mph40.2 kmh 29.86 in1011.2 mb 0.00 in0.0 mm 0.00 in0.0 mm 0.00 in0.0 mm
03:42 AM 38.7°F3.7°C 34.6°F1.4°C 85% 12.0 mph W19.3 kmh W 25.0 mph40.2 kmh 29.86 in1011.2 mb 0.00 in0.0 mm 0.00 in0.0 mm 0.00 in0.0 mm
03:47 AM 38.5°F3.6°C 34.4°F1.3°C 85% 11.0 mph WNW17.7 kmh WNW 25.0 mph40.2 kmh 29.86 in1011.2 mb 0.00 in0.0 mm 0.00 in0.0 mm 0.00 in0.0 mm
03:52 AM 38.3°F3.5°C 34.2°F1.2°C 85% 10.0 mph W16.1 kmh W 25.0 mph40.2 kmh 29.87 in1011.5 mb 0.00 in0.0 mm 0.00 in0.0 mm 0.00 in0.0 mm
03:57 AM 38.2°F3.4°C 34.1°F1.2°C 85% 10.0 mph WSW16.1 kmh WSW 19.0 mph30.6 kmh 29.87 in1011.5 mb 0.00 in0.0 mm 0.00 in0.0 mm 0.00 in0.0 mm
04:02 AM 38.2°F3.4°C 34.4°F1.3°C 86% 5.0 mph W8.0 kmh W 19.0 mph30.6 kmh 29.87 in1011.5 mb 0.00 in0.0 mm 0.00 in0.0 mm 0.00 in0.0 mm
04:07 AM 38.2°F3.4°C 34.1°F1.2°C 85% 14.0 mph WSW22.5 kmh WSW 23.0 mph37.0 kmh 29.88 in1011.9 mb 0.00 in0.0 mm 0.00 in0.0 mm 0.00 in0.0 mm
04:12 AM 38.2°F3.4°C 34.1°F1.2°C 85% 10.0 mph WSW16.1 kmh WSW 23.0 mph37.0 kmh 29.88 in1011.9 mb 0.00 in0.0 mm 0.00 in0.0 mm 0.00 in0.0 mm
04:17 AM 38.2°F3.4°C 34.1°F1.2°C 85% 12.0 mph NW19.3 kmh NW 23.0 mph37.0 kmh 29.89 in1012.2 mb 0.00 in0.0 mm 0.00 in0.0 mm 0.00 in0.0 mm
04:22 AM 38.2°F3.4°C 34.1°F1.2°C 85% 14.0 mph NW22.5 kmh NW 26.0 mph41.8 kmh 29.90 in1012.5 mb 0.00 in0.0 mm 0.00 in0.0 mm 0.00 in0.0 mm
04:27 AM 38.2°F3.4°C 34.1°F1.2°C 85% 10.0 mph NW16.1 kmh NW 26.0 mph41.8 kmh 29.91 in1012.9 mb 0.00 in0.0 mm 0.00 in0.0 mm 0.00 in0.0 mm
04:32 AM 38.2°F3.4°C 34.1°F1.2°C 85% 11.0 mph W17.7 kmh W 26.0 mph41.8 kmh 29.91 in1012.9 mb 0.00 in0.0 mm 0.00 in0.0 mm 0.00 in0.0 mm
04:37 AM 38.2°F3.4°C 34.1°F1.2°C 85% 10.0 mph WSW16.1 kmh WSW 26.0 mph41.8 kmh 29.91 in1012.9 mb 0.00 in0.0 mm 0.00 in0.0 mm 0.00 in0.0 mm
04:42 AM 38.2°F3.4°C 34.1°F1.2°C 85% 9.0 mph W14.5 kmh W 20.0 mph32.2 kmh 29.92 in1013.2 mb 0.00 in0.0 mm 0.00 in0.0 mm 0.00 in0.0 mm
04:47 AM 38.1°F3.4°C 34.0°F1.1°C 85% 6.0 mph W9.7 kmh W 22.0 mph35.4 kmh 29.92 in1013.2 mb 0.00 in0.0 mm 0.00 in0.0 mm 0.00 in0.0 mm
04:52 AM 38.1°F3.4°C 34.0°F1.1°C 85% 5.0 mph W8.0 kmh W 22.0 mph35.4 kmh 29.93 in1013.5 mb 0.00 in0.0 mm 0.00 in0.0 mm 0.00 in0.0 mm
04:57 AM 38.1°F3.4°C 34.0°F1.1°C 85% 6.0 mph W9.7 kmh W 22.0 mph35.4 kmh 29.94 in1013.9 mb 0.00 in0.0 mm 0.00 in0.0 mm 0.00 in0.0 mm
05:02 AM 38.0°F3.3°C 33.9°F1.1°C 85% 7.0 mph WSW11.3 kmh WSW 22.0 mph35.4 kmh 29.94 in1013.9 mb 0.00 in0.0 mm 0.00 in0.0 mm 0.00 in0.0 mm
05:07 AM 38.0°F3.3°C 33.9°F1.1°C 85% 9.0 mph WSW14.5 kmh WSW 21.0 mph33.8 kmh 29.94 in1013.9 mb 0.00 in0.0 mm 0.00 in0.0 mm 0.00 in0.0 mm
05:12 AM 37.9°F3.3°C 33.8°F1.0°C 85% 11.0 mph W17.7 kmh W 21.0 mph33.8 kmh 29.95 in1014.2 mb 0.00 in0.0 mm 0.00 in0.0 mm 0.00 in0.0 mm
05:17 AM 37.9°F3.3°C 33.8°F1.0°C 85% 8.0 mph NW12.9 kmh NW 17.0 mph27.4 kmh 29.95 in1014.2 mb 0.00 in0.0 mm 0.00 in0.0 mm 0.00 in0.0 mm
05:22 AM 37.8°F3.2°C 33.7°F0.9°C 85% 7.0 mph W11.3 kmh W 17.0 mph27.4 kmh 29.94 in1013.9 mb 0.00 in0.0 mm 0.00 in0.0 mm 0.00 in0.0 mm
05:27 AM 37.7°F3.2°C 33.6°F0.9°C 85% 11.0 mph WSW17.7 kmh WSW 16.0 mph25.7 kmh 29.95 in1014.2 mb 0.00 in0.0 mm 0.00 in0.0 mm 0.00 in0.0 mm
05:32 AM 37.7°F3.2°C 33.6°F0.9°C 85% 10.0 mph WNW16.1 kmh WNW 16.0 mph25.7 kmh 29.95 in1014.2 mb 0.00 in0.0 mm 0.00 in0.0 mm 0.00 in0.0 mm
05:37 AM 37.6°F3.1°C 33.5°F0.8°C 85% 6.0 mph W9.7 kmh W 14.0 mph22.5 kmh 29.96 in1014.6 mb 0.00 in0.0 mm 0.00 in0.0 mm 0.00 in0.0 mm
05:42 AM 37.5°F3.1°C 33.4°F0.8°C 85% 4.0 mph W6.4 kmh W 14.0 mph22.5 kmh 29.97 in1014.9 mb 0.00 in0.0 mm 0.00 in0.0 mm 0.00 in0.0 mm
05:47 AM 37.5°F3.1°C 33.4°F0.8°C 85% 5.0 mph W8.0 kmh W 16.0 mph25.7 kmh 29.98 in1015.2 mb 0.00 in0.0 mm 0.00 in0.0 mm 0.00 in0.0 mm
05:52 AM 37.5°F3.1°C 33.4°F0.8°C 85% 4.0 mph W6.4 kmh W 16.0 mph25.7 kmh 29.99 in1015.6 mb 0.00 in0.0 mm 0.00 in0.0 mm 0.00 in0.0 mm
05:57 AM 37.5°F3.1°C 33.1°F0.6°C 84% 8.0 mph WNW12.9 kmh WNW 16.0 mph25.7 kmh 29.99 in1015.6 mb 0.00 in0.0 mm 0.00 in0.0 mm 0.00 in0.0 mm
06:02 AM 37.5°F3.1°C 33.1°F0.6°C 84% 4.0 mph NW6.4 kmh NW 16.0 mph25.7 kmh 30.00 in1015.9 mb 0.00 in0.0 mm 0.00 in0.0 mm 0.00 in0.0 mm
06:07 AM 37.5°F3.1°C 33.1°F0.6°C 84% 3.0 mph WNW4.8 kmh WNW 15.0 mph24.1 kmh 30.00 in1015.9 mb 0.00 in0.0 mm 0.00 in0.0 mm 0.00 in0.0 mm
06:12 AM 37.5°F3.1°C 33.1°F0.6°C 84% 5.0 mph WNW8.0 kmh WNW 15.0 mph24.1 kmh 30.01 in1016.3 mb 0.00 in0.0 mm 0.00 in0.0 mm 0.00 in0.0 mm
06:17 AM 37.4°F3.0°C 33.0°F0.6°C 84% 10.0 mph W16.1 kmh W 15.0 mph24.1 kmh 30.02 in1016.6 mb 0.00 in0.0 mm 0.00 in0.0 mm 0.00 in0.0 mm
06:22 AM 37.4°F3.0°C 33.0°F0.6°C 84% 4.0 mph W6.4 kmh W 15.0 mph24.1 kmh 30.02 in1016.6 mb 0.00 in0.0 mm 0.00 in0.0 mm 0.00 in0.0 mm
06:27 AM 37.4°F3.0°C 32.7°F0.4°C 83% 4.0 mph WNW6.4 kmh WNW 12.0 mph19.3 kmh 30.03 in1016.9 mb 0.00 in0.0 mm 0.00 in0.0 mm 0.00 in0.0 mm
06:32 AM 37.4°F3.0°C 33.0°F0.6°C 84% 7.0 mph WNW11.3 kmh WNW 12.0 mph19.3 kmh 30.04 in1017.3 mb 0.00 in0.0 mm 0.00 in0.0 mm 0.00 in0.0 mm
06:37 AM 37.5°F3.1°C 33.1°F0.6°C 84% 4.0 mph W6.4 kmh W 12.0 mph19.3 kmh 30.04 in1017.3 mb 0.00 in0.0 mm 0.00 in0.0 mm 0.00 in0.0 mm
06:42 AM 37.5°F3.1°C 33.1°F0.6°C 84% 9.0 mph WNW14.5 kmh WNW 12.0 mph19.3 kmh 30.04 in1017.3 mb 0.00 in0.0 mm 0.00 in0.0 mm 0.00 in0.0 mm
06:47 AM 37.5°F3.1°C 32.8°F0.4°C 83% 3.0 mph WNW4.8 kmh WNW 14.0 mph22.5 kmh 30.04 in1017.3 mb 0.00 in0.0 mm 0.00 in0.0 mm 0.00 in0.0 mm
06:52 AM 37.5°F3.1°C 33.1°F0.6°C 84% 15.0 mph WNW24.1 kmh WNW 15.0 mph24.1 kmh 30.05 in1017.6 mb 0.00 in0.0 mm 0.00 in0.0 mm 0.00 in0.0 mm
06:57 AM 37.4°F3.0°C 32.7°F0.4°C 83% 6.0 mph WNW9.7 kmh WNW 15.0 mph24.1 kmh 30.05 in1017.6 mb 0.00 in0.0 mm 0.00 in0.0 mm 0.00 in0.0 mm
07:02 AM 37.4°F3.0°C 32.7°F0.4°C 83% 4.0 mph NW6.4 kmh NW 15.0 mph24.1 kmh 30.05 in1017.6 mb 0.00 in0.0 mm 0.00 in0.0 mm 0.00 in0.0 mm
07:07 AM 37.3°F2.9°C 32.6°F0.3°C 83% 4.0 mph W6.4 kmh W 15.0 mph24.1 kmh 30.06 in1017.9 mb 0.00 in0.0 mm 0.00 in0.0 mm 0.00 in0.0 mm
07:12 AM 37.3°F2.9°C 32.6°F0.3°C 83% 3.0 mph WNW4.8 kmh WNW 12.0 mph19.3 kmh 30.06 in1017.9 mb 0.00 in0.0 mm 0.00 in0.0 mm 0.00 in0.0 mm
07:17 AM 37.3°F2.9°C 32.6°F0.3°C 83% 4.0 mph WNW6.4 kmh WNW 12.0 mph19.3 kmh 30.07 in1018.3 mb 0.00 in0.0 mm 0.00 in0.0 mm 0.00 in0.0 mm
07:22 AM 37.3°F2.9°C 32.6°F0.3°C 83% 4.0 mph NW6.4 kmh NW 13.0 mph20.9 kmh 30.07 in1018.3 mb 0.00 in0.0 mm 0.00 in0.0 mm 0.00 in0.0 mm
07:27 AM 37.3°F2.9°C 32.6°F0.3°C 83% 2.0 mph WNW3.2 kmh WNW 13.0 mph20.9 kmh 30.08 in1018.6 mb 0.00 in0.0 mm 0.00 in0.0 mm 0.00 in0.0 mm
07:32 AM 37.3°F2.9°C 32.6°F0.3°C 83% 4.0 mph NW6.4 kmh NW 13.0 mph20.9 kmh 30.08 in1018.6 mb 0.00 in0.0 mm 0.00 in0.0 mm 0.00 in0.0 mm
07:37 AM 37.2°F2.9°C 32.5°F0.3°C 83% 5.0 mph WNW8.0 kmh WNW 13.0 mph20.9 kmh 30.09 in1019.0 mb 0.00 in0.0 mm 0.00 in0.0 mm 0.00 in0.0 mm
07:42 AM 37.2°F2.9°C 32.5°F0.3°C 83% 2.0 mph W3.2 kmh W 10.0 mph16.1 kmh 30.09 in1019.0 mb 0.00 in0.0 mm 0.00 in0.0 mm 0.00 in0.0 mm
07:47 AM 37.2°F2.9°C 32.5°F0.3°C 83% 3.0 mph W4.8 kmh W 10.0 mph16.1 kmh 30.10 in1019.3 mb 0.00 in0.0 mm 0.00 in0.0 mm 0.00 in0.0 mm
07:52 AM 37.2°F2.9°C 32.5°F0.3°C 83% 4.0 mph WNW6.4 kmh WNW 10.0 mph16.1 kmh 30.10 in1019.3 mb 0.00 in0.0 mm 0.00 in0.0 mm 0.00 in0.0 mm
07:57 AM 37.2°F2.9°C 32.5°F0.3°C 83% 4.0 mph W6.4 kmh W 10.0 mph16.1 kmh 30.10 in1019.3 mb 0.00 in0.0 mm 0.00 in0.0 mm 0.00 in0.0 mm
08:02 AM 37.2°F2.9°C 32.5°F0.3°C 83% 3.0 mph WNW4.8 kmh WNW 10.0 mph16.1 kmh 30.10 in1019.3 mb 0.00 in0.0 mm 0.00 in0.0 mm 0.00 in0.0 mm
08:07 AM 37.2°F2.9°C 32.8°F0.4°C 84% 2.0 mph WNW3.2 kmh WNW 10.0 mph16.1 kmh 30.11 in1019.6 mb 0.00 in0.0 mm 0.00 in0.0 mm 0.00 in0.0 mm
08:12 AM 37.1°F2.8°C 32.7°F0.4°C 84% 4.0 mph WSW6.4 kmh WSW 10.0 mph16.1 kmh 30.11 in1019.6 mb 0.00 in0.0 mm 0.00 in0.0 mm 0.00 in0.0 mm
08:17 AM 37.1°F2.8°C 32.7°F0.4°C 84% 4.0 mph W6.4 kmh W 10.0 mph16.1 kmh 30.11 in1019.6 mb 0.00 in0.0 mm 0.00 in0.0 mm 0.00 in0.0 mm
08:22 AM 37.1°F2.8°C 32.7°F0.4°C 84% 5.0 mph W8.0 kmh W 10.0 mph16.1 kmh 30.11 in1019.6 mb 0.00 in0.0 mm 0.00 in0.0 mm 0.00 in0.0 mm
08:27 AM 37.1°F2.8°C 32.4°F0.2°C 83% 1.0 mph WNW1.6 kmh WNW 8.0 mph12.9 kmh 30.11 in1019.6 mb 0.00 in0.0 mm 0.00 in0.0 mm 0.00 in0.0 mm
08:32 AM 37.1°F2.8°C 32.4°F0.2°C 83% 2.0 mph WNW3.2 kmh WNW 8.0 mph12.9 kmh 30.11 in1019.6 mb 0.00 in0.0 mm 0.00 in0.0 mm 0.00 in0.0 mm
08:37 AM 37.2°F2.9°C 32.5°F0.3°C 83% 1.0 mph NW1.6 kmh NW 8.0 mph12.9 kmh 30.11 in1019.6 mb 0.00 in0.0 mm 0.00 in0.0 mm 0.00 in0.0 mm
08:42 AM 37.2°F2.9°C 32.5°F0.3°C 83% 4.0 mph WNW6.4 kmh WNW 8.0 mph12.9 kmh 30.12 in1020.0 mb 0.00 in0.0 mm 0.00 in0.0 mm 0.00 in0.0 mm
08:47 AM 37.2°F2.9°C 32.5°F0.3°C 83% 3.0 mph WNW4.8 kmh WNW 7.0 mph11.3 kmh 30.12 in1020.0 mb 0.00 in0.0 mm 0.00 in0.0 mm 0.00 in0.0 mm
08:52 AM 37.2°F2.9°C 32.5°F0.3°C 83% 3.0 mph WNW4.8 kmh WNW 7.0 mph11.3 kmh 30.12 in1020.0 mb 0.00 in0.0 mm 0.00 in0.0 mm 0.00 in0.0 mm
08:57 AM 37.3°F2.9°C 32.6°F0.3°C 83% 2.0 mph WNW3.2 kmh WNW 8.0 mph12.9 kmh 30.13 in1020.3 mb 0.00 in0.0 mm 0.00 in0.0 mm 0.00 in0.0 mm
09:02 AM 37.3°F2.9°C 32.6°F0.3°C 83% 6.0 mph WNW9.7 kmh WNW 8.0 mph12.9 kmh 30.13 in1020.3 mb 0.00 in0.0 mm 0.00 in0.0 mm 0.00 in0.0 mm
09:07 AM 37.3°F2.9°C 32.6°F0.3°C 83% 2.0 mph W3.2 kmh W 8.0 mph12.9 kmh 30.13 in1020.3 mb 0.00 in0.0 mm 0.00 in0.0 mm 0.00 in0.0 mm
09:12 AM 37.3°F2.9°C 32.6°F0.3°C 83% 5.0 mph WNW8.0 kmh WNW 9.0 mph14.5 kmh 30.13 in1020.3 mb 0.00 in0.0 mm 0.00 in0.0 mm 0.00 in0.0 mm
09:17 AM 37.3°F2.9°C 32.6°F0.3°C 83% 3.0 mph WNW4.8 kmh WNW 9.0 mph14.5 kmh 30.14 in1020.7 mb 0.00 in0.0 mm 0.00 in0.0 mm 0.00 in0.0 mm
09:22 AM 37.4°F3.0°C 32.7°F0.4°C 83% 6.0 mph W9.7 kmh W 9.0 mph14.5 kmh 30.14 in1020.7 mb 0.00 in0.0 mm 0.00 in0.0 mm 0.00 in0.0 mm
09:27 AM 37.4°F3.0°C 32.7°F0.4°C 83% 3.0 mph WNW4.8 kmh WNW 9.0 mph14.5 kmh 30.15 in1021.0 mb 0.00 in0.0 mm 0.00 in0.0 mm 0.00 in0.0 mm
09:32 AM 37.4°F3.0°C 32.7°F0.4°C 83% 3.0 mph WNW4.8 kmh WNW 7.0 mph11.3 kmh 30.15 in1021.0 mb 0.00 in0.0 mm 0.00 in0.0 mm 0.00 in0.0 mm
09:37 AM 37.5°F3.1°C 32.8°F0.4°C 83% 4.0 mph WNW6.4 kmh WNW 7.0 mph11.3 kmh 30.16 in1021.3 mb 0.00 in0.0 mm 0.00 in0.0 mm 0.00 in0.0 mm
09:42 AM 37.5°F3.1°C 32.8°F0.4°C 83% 5.0 mph NW8.0 kmh NW 8.0 mph12.9 kmh 30.17 in1021.7 mb 0.00 in0.0 mm 0.00 in0.0 mm 0.00 in0.0 mm
09:47 AM 37.5°F3.1°C 32.8°F0.4°C 83% 4.0 mph WSW6.4 kmh WSW 8.0 mph12.9 kmh 30.17 in1021.7 mb 0.00 in0.0 mm 0.00 in0.0 mm 0.00 in0.0 mm
09:52 AM 37.5°F3.1°C 32.8°F0.4°C 83% 5.0 mph WNW8.0 kmh WNW 10.0 mph16.1 kmh 30.18 in1022.0 mb 0.00 in0.0 mm 0.00 in0.0 mm 0.00 in0.0 mm
09:57 AM 37.5°F3.1°C 32.8°F0.4°C 83% 2.0 mph WNW3.2 kmh WNW 10.0 mph16.1 kmh 30.18 in1022.0 mb 0.00 in0.0 mm 0.00 in0.0 mm 0.00 in0.0 mm
10:02 AM 37.5°F3.1°C 32.8°F0.4°C 83% 3.0 mph W4.8 kmh W 10.0 mph16.1 kmh 30.18 in1022.0 mb 0.00 in0.0 mm 0.00 in0.0 mm 0.00 in0.0 mm
10:07 AM 37.5°F3.1°C 32.8°F0.4°C 83% 5.0 mph WSW8.0 kmh WSW 10.0 mph16.1 kmh 30.18 in1022.0 mb 0.00 in0.0 mm 0.00 in0.0 mm 0.00 in0.0 mm
10:12 AM 37.5°F3.1°C 32.8°F0.4°C 83% 3.0 mph W4.8 kmh W 8.0 mph12.9 kmh 30.18 in1022.0 mb 0.00 in0.0 mm 0.00 in0.0 mm 0.00 in0.0 mm
10:17 AM 37.5°F3.1°C 32.5°F0.3°C 82% 5.0 mph WNW8.0 kmh WNW 9.0 mph14.5 kmh 30.19 in1022.4 mb 0.00 in0.0 mm 0.00 in0.0 mm 0.00 in0.0 mm
10:22 AM 37.5°F3.1°C 32.5°F0.3°C 82% 4.0 mph WSW6.4 kmh WSW 9.0 mph14.5 kmh 30.19 in1022.4 mb 0.00 in0.0 mm 0.00 in0.0 mm 0.00 in0.0 mm
10:27 AM 37.6°F3.1°C 32.9°F0.5°C 83% 3.0 mph WNW4.8 kmh WNW 9.0 mph14.5 kmh 30.19 in1022.4 mb 0.00 in0.0 mm 0.00 in0.0 mm 0.00 in0.0 mm
10:32 AM 37.6°F3.1°C 32.9°F0.5°C 83% 3.0 mph W4.8 kmh W 9.0 mph14.5 kmh 30.19 in1022.4 mb 0.00 in0.0 mm 0.00 in0.0 mm 0.00 in0.0 mm
10:37 AM 37.6°F3.1°C 32.9°F0.5°C 83% 8.0 mph WNW12.9 kmh WNW 10.0 mph16.1 kmh 30.19 in1022.4 mb 0.00 in0.0 mm 0.00 in0.0 mm 0.00 in0.0 mm
10:42 AM 37.6°F3.1°C 32.9°F0.5°C 83% 7.0 mph W11.3 kmh W 10.0 mph16.1 kmh 30.19 in1022.4 mb 0.00 in0.0 mm 0.00 in0.0 mm 0.00 in0.0 mm
10:47 AM 37.6°F3.1°C 32.9°F0.5°C 83% 5.0 mph WNW8.0 kmh WNW 10.0 mph16.1 kmh 30.19 in1022.4 mb 0.00 in0.0 mm 0.00 in0.0 mm 0.00 in0.0 mm
10:52 AM 37.6°F3.1°C 32.9°F0.5°C 83% 4.0 mph WNW6.4 kmh WNW 10.0 mph16.1 kmh 30.19 in1022.4 mb 0.00 in0.0 mm 0.00 in0.0 mm 0.00 in0.0 mm
10:57 AM 37.6°F3.1°C 32.9°F0.5°C 83% 6.0 mph WNW9.7 kmh WNW 10.0 mph16.1 kmh 30.18 in1022.0 mb 0.00 in0.0 mm 0.00 in0.0 mm 0.00 in0.0 mm
11:02 AM 37.5°F3.1°C 32.5°F0.3°C 82% 3.0 mph NW4.8 kmh NW 10.0 mph16.1 kmh 30.19 in1022.4 mb 0.00 in0.0 mm 0.00 in0.0 mm 0.00 in0.0 mm
11:07 AM 37.6°F3.1°C 32.6°F0.3°C 82% 4.0 mph WNW6.4 kmh WNW 10.0 mph16.1 kmh 30.19 in1022.4 mb 0.00 in0.0 mm 0.00 in0.0 mm 0.00 in0.0 mm
11:12 AM 37.6°F3.1°C 32.9°F0.5°C 83% 5.0 mph W8.0 kmh W 10.0 mph16.1 kmh 30.19 in1022.4 mb 0.00 in0.0 mm 0.00 in0.0 mm 0.00 in0.0 mm
11:17 AM 37.6°F3.1°C 32.6°F0.3°C 82% 3.0 mph NW4.8 kmh NW 10.0 mph16.1 kmh 30.19 in1022.4 mb 0.00 in0.0 mm 0.00 in0.0 mm 0.00 in0.0 mm
11:22 AM 37.5°F3.1°C 32.5°F0.3°C 82% 2.0 mph WNW3.2 kmh WNW 10.0 mph16.1 kmh 30.19 in1022.4 mb 0.00 in0.0 mm 0.00 in0.0 mm 0.00 in0.0 mm
11:27 AM 37.5°F3.1°C 32.5°F0.3°C 82% 2.0 mph WNW3.2 kmh WNW 8.0 mph12.9 kmh 30.19 in1022.4 mb 0.00 in0.0 mm 0.00 in0.0 mm 0.00 in0.0 mm
11:32 AM 37.6°F3.1°C 32.6°F0.3°C 82% 3.0 mph NW4.8 kmh NW 8.0 mph12.9 kmh 30.18 in1022.0 mb 0.00 in0.0 mm 0.00 in0.0 mm 0.00 in0.0 mm
11:37 AM 37.6°F3.1°C 32.9°F0.5°C 83% 4.0 mph NW6.4 kmh NW 5.0 mph8.0 kmh 30.18 in1022.0 mb 0.00 in0.0 mm 0.00 in0.0 mm 0.00 in0.0 mm
11:42 AM 37.6°F3.1°C 32.9°F0.5°C 83% 5.0 mph WNW8.0 kmh WNW 7.0 mph11.3 kmh 30.18 in1022.0 mb 0.00 in0.0 mm 0.00 in0.0 mm 0.00 in0.0 mm
11:47 AM 37.6°F3.1°C 32.6°F0.3°C 82% 6.0 mph WNW9.7 kmh WNW 7.0 mph11.3 kmh 30.18 in1022.0 mb 0.00 in0.0 mm 0.00 in0.0 mm 0.00 in0.0 mm
11:52 AM 37.6°F3.1°C 32.6°F0.3°C 82% 4.0 mph WNW6.4 kmh WNW 7.0 mph11.3 kmh 30.18 in1022.0 mb 0.00 in0.0 mm 0.00 in0.0 mm 0.00 in0.0 mm
11:57 AM 37.6°F3.1°C 32.6°F0.3°C 82% 1.0 mph W1.6 kmh W 7.0 mph11.3 kmh 30.18 in1022.0 mb 0.00 in0.0 mm 0.00 in0.0 mm 0.00 in0.0 mm
12:02 PM 37.6°F3.1°C 32.6°F0.3°C 82% 4.0 mph WNW6.4 kmh WNW 7.0 mph11.3 kmh 30.18 in1022.0 mb 0.00 in0.0 mm 0.00 in0.0 mm 0.00 in0.0 mm
12:07 PM 37.6°F3.1°C 32.3°F0.2°C 81% 4.0 mph NW6.4 kmh NW 7.0 mph11.3 kmh 30.18 in1022.0 mb 0.00 in0.0 mm 0.00 in0.0 mm 0.00 in0.0 mm
12:12 PM 37.6°F3.1°C 32.3°F0.2°C 81% 2.0 mph W3.2 kmh W 7.0 mph11.3 kmh 30.18 in1022.0 mb 0.00 in0.0 mm 0.00 in0.0 mm 0.00 in0.0 mm
12:17 PM 37.6°F3.1°C 32.3°F0.2°C 81% 6.0 mph WNW9.7 kmh WNW 7.0 mph11.3 kmh 30.18 in1022.0 mb 0.00 in0.0 mm 0.00 in0.0 mm 0.00 in0.0 mm
12:22 PM 37.6°F3.1°C 32.3°F0.2°C 81% 3.0 mph NW4.8 kmh NW 7.0 mph11.3 kmh 30.17 in1021.7 mb 0.00 in0.0 mm 0.00 in0.0 mm 0.00 in0.0 mm
12:27 PM 37.6°F3.1°C 32.3°F0.2°C 81% 3.0 mph NW4.8 kmh NW 6.0 mph9.7 kmh 30.17 in1021.7 mb 0.00 in0.0 mm 0.00 in0.0 mm 0.00 in0.0 mm
12:32 PM 37.6°F3.1°C 32.3°F0.2°C 81% 2.0 mph NW3.2 kmh NW 6.0 mph9.7 kmh 30.18 in1022.0 mb 0.00 in0.0 mm 0.00 in0.0 mm 0.00 in0.0 mm
12:37 PM 37.7°F3.2°C 32.4°F0.2°C 81% 4.0 mph NW6.4 kmh NW 6.0 mph9.7 kmh 30.18 in1022.0 mb 0.00 in0.0 mm 0.00 in0.0 mm 0.00 in0.0 mm
12:42 PM 37.7°F3.2°C 32.4°F0.2°C 81% 4.0 mph NW6.4 kmh NW 6.0 mph9.7 kmh 30.17 in1021.7 mb 0.00 in0.0 mm 0.00 in0.0 mm 0.00 in0.0 mm
12:47 PM 37.7°F3.2°C 32.4°F0.2°C 81% 3.0 mph NW4.8 kmh NW 6.0 mph9.7 kmh 30.17 in1021.7 mb 0.00 in0.0 mm 0.00 in0.0 mm 0.00 in0.0 mm
12:52 PM 37.7°F3.2°C 32.4°F0.2°C 81% 2.0 mph WNW3.2 kmh WNW 6.0 mph9.7 kmh 30.18 in1022.0 mb 0.00 in0.0 mm 0.00 in0.0 mm 0.00 in0.0 mm
12:56 PM 37.7°F3.2°C 32.4°F0.2°C 81% 4.0 mph NW6.4 kmh NW 6.0 mph9.7 kmh 30.17 in1021.7 mb 0.00 in0.0 mm 0.00 in0.0 mm 0.00 in0.0 mm
01:01 PM 37.7°F3.2°C 32.4°F0.2°C 81% 1.0 mph NW1.6 kmh NW 7.0 mph11.3 kmh 30.17 in1021.7 mb 0.00 in0.0 mm 0.00 in0.0 mm 0.00 in0.0 mm
01:06 PM 37.8°F3.2°C 32.1°F0.1°C 80% 4.0 mph NW6.4 kmh NW 7.0 mph11.3 kmh 30.17 in1021.7 mb 0.00 in0.0 mm 0.00 in0.0 mm 0.00 in0.0 mm
01:11 PM 37.9°F3.3°C 32.2°F0.1°C 80% 5.0 mph NW8.0 kmh NW 7.0 mph11.3 kmh 30.17 in1021.7 mb 0.00 in0.0 mm 0.00 in0.0 mm 0.00 in0.0 mm
01:16 PM 37.9°F3.3°C 32.2°F0.1°C 80% 4.0 mph NW6.4 kmh NW 7.0 mph11.3 kmh 30.17 in1021.7 mb 0.00 in0.0 mm 0.00 in0.0 mm 0.00 in0.0 mm
01:21 PM 37.9°F3.3°C 32.2°F0.1°C 80% 3.0 mph WNW4.8 kmh WNW 7.0 mph11.3 kmh 30.17 in1021.7 mb 0.00 in0.0 mm 0.00 in0.0 mm 0.00 in0.0 mm
01:26 PM 37.9°F3.3°C 32.2°F0.1°C 80% 3.0 mph NW4.8 kmh NW 7.0 mph11.3 kmh 30.17 in1021.7 mb 0.00 in0.0 mm 0.00 in0.0 mm 0.00 in0.0 mm
01:31 PM 38.0°F3.3°C 32.3°F0.2°C 80% 6.0 mph WNW9.7 kmh WNW 7.0 mph11.3 kmh 30.17 in1021.7 mb 0.00 in0.0 mm 0.00 in0.0 mm 0.00 in0.0 mm
01:36 PM 38.0°F3.3°C 32.3°F0.2°C 80% 3.0 mph NW4.8 kmh NW 7.0 mph11.3 kmh 30.16 in1021.3 mb 0.00 in0.0 mm 0.00 in0.0 mm 0.00 in0.0 mm
01:41 PM 37.9°F3.3°C 32.2°F0.1°C 80% 5.0 mph NW8.0 kmh NW 7.0 mph11.3 kmh 30.16 in1021.3 mb 0.00 in0.0 mm 0.00 in0.0 mm 0.00 in0.0 mm
01:46 PM 38.0°F3.3°C 32.3°F0.2°C 80% 3.0 mph NNW4.8 kmh NNW 7.0 mph11.3 kmh 30.17 in1021.7 mb 0.00 in0.0 mm 0.00 in0.0 mm 0.00 in0.0 mm
01:51 PM 38.0°F3.3°C 32.3°F0.2°C 80% 4.0 mph NW6.4 kmh NW 7.0 mph11.3 kmh 30.17 in1021.7 mb 0.00 in0.0 mm 0.00 in0.0 mm 0.00 in0.0 mm
01:56 PM 38.0°F3.3°C 32.3°F0.2°C 80% 3.0 mph NW4.8 kmh NW 6.0 mph9.7 kmh 30.18 in1022.0 mb 0.00 in0.0 mm 0.00 in0.0 mm 0.00 in0.0 mm
02:01 PM 38.0°F3.3°C 32.3°F0.2°C 80% 5.0 mph NW8.0 kmh NW 8.0 mph12.9 kmh 30.18 in1022.0 mb 0.00 in0.0 mm 0.00 in0.0 mm 0.00 in0.0 mm
02:06 PM 37.9°F3.3°C 31.9°F-0.1°C 79% 5.0 mph WNW8.0 kmh WNW 8.0 mph12.9 kmh 30.17 in1021.7 mb 0.00 in0.0 mm 0.00 in0.0 mm 0.00 in0.0 mm
02:11 PM 37.8°F3.2°C 32.1°F0.1°C 80% 4.0 mph N6.4 kmh N 8.0 mph12.9 kmh 30.18 in1022.0 mb 0.00 in0.0 mm 0.00 in0.0 mm 0.00 in0.0 mm
02:16 PM 37.8°F3.2°C 32.1°F0.1°C 80% 2.0 mph W3.2 kmh W 8.0 mph12.9 kmh 30.17 in1021.7 mb 0.00 in0.0 mm 0.00 in0.0 mm 0.00 in0.0 mm
02:21 PM 37.8°F3.2°C 32.1°F0.1°C 80% 2.0 mph NNW3.2 kmh NNW 7.0 mph11.3 kmh 30.17 in1021.7 mb 0.00 in0.0 mm 0.00 in0.0 mm 0.00 in0.0 mm
02:26 PM 37.8°F3.2°C 32.1°F0.1°C 80% 3.0 mph NNW4.8 kmh NNW 7.0 mph11.3 kmh 30.18 in1022.0 mb 0.00 in0.0 mm 0.00 in0.0 mm 0.00 in0.0 mm
02:31 PM 37.8°F3.2°C 32.5°F0.3°C 81% Calm Calm 7.0 mph11.3 kmh 30.18 in1022.0 mb 0.00 in0.0 mm 0.00 in0.0 mm 0.00 in0.0 mm
02:36 PM 37.8°F3.2°C 32.5°F0.3°C 81% 2.0 mph NNW3.2 kmh NNW 7.0 mph11.3 kmh 30.18 in1022.0 mb 0.00 in0.0 mm 0.00 in0.0 mm 0.00 in0.0 mm
02:41 PM 37.8°F3.2°C 32.8°F0.4°C 82% 7.0 mph WNW11.3 kmh WNW 7.0 mph11.3 kmh 30.18 in1022.0 mb 0.00 in0.0 mm 0.00 in0.0 mm 0.00 in0.0 mm
02:46 PM 37.7°F3.2°C 32.4°F0.2°C 81% 4.0 mph WNW6.4 kmh WNW 8.0 mph12.9 kmh 30.19 in1022.4 mb 0.00 in0.0 mm 0.00 in0.0 mm 0.00 in0.0 mm
02:51 PM 37.6°F3.1°C 32.3°F0.2°C 81% 6.0 mph NNW9.7 kmh NNW 8.0 mph12.9 kmh 30.19 in1022.4 mb 0.00 in0.0 mm 0.00 in0.0 mm 0.00 in0.0 mm
02:56 PM 37.4°F3.0°C 32.4°F0.2°C 82% 3.0 mph NW4.8 kmh NW 8.0 mph12.9 kmh 30.19 in1022.4 mb 0.00 in0.0 mm 0.00 in0.0 mm 0.00 in0.0 mm
03:01 PM 37.4°F3.0°C 32.4°F0.2°C 82% 5.0 mph N8.0 kmh N 9.0 mph14.5 kmh 30.20 in1022.7 mb 0.00 in0.0 mm 0.00 in0.0 mm 0.00 in0.0 mm
03:06 PM 37.1°F2.8°C 32.1°F0.1°C 82% 4.0 mph NNW6.4 kmh NNW 11.0 mph17.7 kmh 30.20 in1022.7 mb 0.00 in0.0 mm 0.00 in0.0 mm 0.00 in0.0 mm
03:11 PM 36.8°F2.7°C 31.5°F-0.3°C 81% 6.0 mph NNE9.7 kmh NNE 11.0 mph17.7 kmh 30.20 in1022.7 mb 0.00 in0.0 mm 0.00 in0.0 mm 0.00 in0.0 mm
03:16 PM 36.5°F2.5°C 31.2°F-0.4°C 81% 5.0 mph NE8.0 kmh NE 11.0 mph17.7 kmh 30.20 in1022.7 mb 0.00 in0.0 mm 0.00 in0.0 mm 0.00 in0.0 mm
03:21 PM 36.4°F2.4°C 31.1°F-0.5°C 81% 5.0 mph NE8.0 kmh NE 11.0 mph17.7 kmh 30.21 in1023.0 mb 0.00 in0.0 mm 0.00 in0.0 mm 0.00 in0.0 mm
03:26 PM 36.2°F2.3°C 30.9°F-0.6°C 81% 4.0 mph NE6.4 kmh NE 9.0 mph14.5 kmh 30.21 in1023.0 mb 0.00 in0.0 mm 0.00 in0.0 mm 0.00 in0.0 mm
03:31 PM 36.0°F2.2°C 31.0°F-0.6°C 82% 4.0 mph NNE6.4 kmh NNE 9.0 mph14.5 kmh 30.21 in1023.0 mb 0.00 in0.0 mm 0.00 in0.0 mm 0.00 in0.0 mm
03:36 PM 35.8°F2.1°C 30.8°F-0.7°C 82% 8.0 mph N12.9 kmh N 9.0 mph14.5 kmh 30.21 in1023.0 mb 0.00 in0.0 mm 0.00 in0.0 mm 0.00 in0.0 mm
03:41 PM 35.7°F2.1°C 30.7°F-0.7°C 82% 4.0 mph NE6.4 kmh NE 9.0 mph14.5 kmh 30.21 in1023.0 mb 0.00 in0.0 mm 0.00 in0.0 mm 0.00 in0.0 mm
03:46 PM 35.5°F1.9°C 30.5°F-0.8°C 82% 6.0 mph NNW9.7 kmh NNW 8.0 mph12.9 kmh 30.22 in1023.4 mb 0.00 in0.0 mm 0.00 in0.0 mm 0.00 in0.0 mm
03:51 PM 35.4°F1.9°C 30.4°F-0.9°C 82% 2.0 mph NE3.2 kmh NE 8.0 mph12.9 kmh 30.22 in1023.4 mb 0.00 in0.0 mm 0.00 in0.0 mm 0.00 in0.0 mm
03:56 PM 35.3°F1.8°C 30.3°F-0.9°C 82% 6.0 mph NNE9.7 kmh NNE 8.0 mph12.9 kmh 30.22 in1023.4 mb 0.00 in0.0 mm 0.00 in0.0 mm 0.00 in0.0 mm
04:01 PM 35.1°F1.7°C 30.1°F-1.1°C 82% 3.0 mph NNE4.8 kmh NNE 8.0 mph12.9 kmh 30.22 in1023.4 mb 0.00 in0.0 mm 0.00 in0.0 mm 0.00 in0.0 mm
04:06 PM 35.0°F1.7°C 30.4°F-0.9°C 83% 4.0 mph NNE6.4 kmh NNE 8.0 mph12.9 kmh 30.22 in1023.4 mb 0.00 in0.0 mm 0.00 in0.0 mm 0.00 in0.0 mm
04:11 PM 35.0°F1.7°C 30.4°F-0.9°C 83% 7.0 mph N11.3 kmh N 8.0 mph12.9 kmh 30.22 in1023.4 mb 0.00 in0.0 mm 0.00 in0.0 mm 0.00 in0.0 mm
04:16 PM 35.0°F1.7°C 30.4°F-0.9°C 83% 3.0 mph NE4.8 kmh NE 7.0 mph11.3 kmh 30.22 in1023.4 mb 0.00 in0.0 mm 0.00 in0.0 mm 0.00 in0.0 mm
04:21 PM 34.9°F1.6°C 30.3°F-0.9°C 83% 6.0 mph NE9.7 kmh NE 7.0 mph11.3 kmh 30.22 in1023.4 mb 0.00 in0.0 mm 0.00 in0.0 mm 0.00 in0.0 mm
04:26 PM 34.8°F1.6°C 30.2°F-1.0°C 83% 5.0 mph NNE8.0 kmh NNE 10.0 mph16.1 kmh 30.22 in1023.4 mb 0.00 in0.0 mm 0.00 in0.0 mm 0.00 in0.0 mm
04:31 PM 34.7°F1.5°C 30.1°F-1.1°C 83% 2.0 mph NE3.2 kmh NE 10.0 mph16.1 kmh 30.23 in1023.7 mb 0.00 in0.0 mm 0.00 in0.0 mm 0.00 in0.0 mm
04:36 PM 34.7°F1.5°C 30.1°F-1.1°C 83% 2.0 mph NE3.2 kmh NE 10.0 mph16.1 kmh 30.23 in1023.7 mb 0.00 in0.0 mm 0.00 in0.0 mm 0.00 in0.0 mm
04:41 PM 34.6°F1.4°C 30.0°F-1.1°C 83% 7.0 mph NE11.3 kmh NE 10.0 mph16.1 kmh 30.23 in1023.7 mb 0.00 in0.0 mm 0.00 in0.0 mm 0.00 in0.0 mm
04:46 PM 34.6°F1.4°C 30.0°F-1.1°C 83% 2.0 mph NNE3.2 kmh NNE 7.0 mph11.3 kmh 30.24 in1024.0 mb 0.00 in0.0 mm 0.00 in0.0 mm 0.00 in0.0 mm
04:51 PM 34.5°F1.4°C 29.9°F-1.2°C 83% 3.0 mph NE4.8 kmh NE 7.0 mph11.3 kmh 30.24 in1024.0 mb 0.00 in0.0 mm 0.00 in0.0 mm 0.00 in0.0 mm
04:56 PM 34.5°F1.4°C 29.9°F-1.2°C 83% 2.0 mph NE3.2 kmh NE 7.0 mph11.3 kmh 30.24 in1024.0 mb 0.00 in0.0 mm 0.00 in0.0 mm 0.00 in0.0 mm
05:01 PM 34.4°F1.3°C 30.1°F-1.1°C 84% 2.0 mph NE3.2 kmh NE 7.0 mph11.3 kmh 30.24 in1024.0 mb 0.00 in0.0 mm 0.00 in0.0 mm 0.00 in0.0 mm
05:06 PM 34.4°F1.3°C 30.1°F-1.1°C 84% 1.0 mph NE1.6 kmh NE 7.0 mph11.3 kmh 30.24 in1024.0 mb 0.00 in0.0 mm 0.00 in0.0 mm 0.00 in0.0 mm
05:11 PM 34.2°F1.2°C 29.9°F-1.2°C 84% 3.0 mph NNE4.8 kmh NNE 7.0 mph11.3 kmh 30.25 in1024.4 mb 0.00 in0.0 mm 0.00 in0.0 mm 0.00 in0.0 mm
05:16 PM 34.2°F1.2°C 29.9°F-1.2°C 84% 3.0 mph NE4.8 kmh NE 7.0 mph11.3 kmh 30.24 in1024.0 mb 0.00 in0.0 mm 0.00 in0.0 mm 0.00 in0.0 mm
05:21 PM 34.2°F1.2°C 29.9°F-1.2°C 84% 3.0 mph NE4.8 kmh NE 7.0 mph11.3 kmh 30.25 in1024.4 mb 0.00 in0.0 mm 0.00 in0.0 mm 0.00 in0.0 mm
05:26 PM 34.0°F1.1°C 29.7°F-1.3°C 84% 2.0 mph NE3.2 kmh NE 7.0 mph11.3 kmh 30.25 in1024.4 mb 0.00 in0.0 mm 0.00 in0.0 mm 0.00 in0.0 mm
05:31 PM 34.0°F1.1°C 29.7°F-1.3°C 84% 4.0 mph NE6.4 kmh NE 7.0 mph11.3 kmh 30.25 in1024.4 mb 0.00 in0.0 mm 0.00 in0.0 mm 0.00 in0.0 mm
05:36 PM 33.9°F1.1°C 29.6°F-1.3°C 84% 4.0 mph NE6.4 kmh NE 7.0 mph11.3 kmh 30.25 in1024.4 mb 0.00 in0.0 mm 0.00 in0.0 mm 0.00 in0.0 mm
05:41 PM 33.8°F1.0°C 29.8°F-1.2°C 85% 4.0 mph NE6.4 kmh NE 7.0 mph11.3 kmh 30.25 in1024.4 mb 0.00 in0.0 mm 0.00 in0.0 mm 0.00 in0.0 mm
05:46 PM 33.7°F0.9°C 29.7°F-1.3°C 85% 4.0 mph NE6.4 kmh NE 8.0 mph12.9 kmh 30.25 in1024.4 mb 0.00 in0.0 mm 0.00 in0.0 mm 0.00 in0.0 mm
05:51 PM 33.6°F0.9°C 29.6°F-1.3°C 85% 4.0 mph NE6.4 kmh NE 8.0 mph12.9 kmh 30.25 in1024.4 mb 0.00 in0.0 mm 0.00 in0.0 mm 0.00 in0.0 mm
05:56 PM 33.5°F0.8°C 29.5°F-1.4°C 85% 4.0 mph NE6.4 kmh NE 8.0 mph12.9 kmh 30.25 in1024.4 mb 0.00 in0.0 mm 0.00 in0.0 mm 0.00 in0.0 mm
06:01 PM 33.5°F0.8°C 29.5°F-1.4°C 85% 3.0 mph NE4.8 kmh NE 8.0 mph12.9 kmh 30.25 in1024.4 mb 0.00 in0.0 mm 0.00 in0.0 mm 0.00 in0.0 mm
06:06 PM 33.3°F0.7°C 29.3°F-1.5°C 85% 3.0 mph NE4.8 kmh NE 8.0 mph12.9 kmh 30.25 in1024.4 mb 0.00 in0.0 mm 0.00 in0.0 mm 0.00 in0.0 mm
06:11 PM 33.3°F0.7°C 29.3°F-1.5°C 85% 5.0 mph NE8.0 kmh NE 8.0 mph12.9 kmh 30.26 in1024.7 mb 0.00 in0.0 mm 0.00 in0.0 mm 0.00 in0.0 mm
06:16 PM 33.2°F0.7°C 29.2°F-1.6°C 85% 6.0 mph NE9.7 kmh NE 8.0 mph12.9 kmh 30.26 in1024.7 mb 0.00 in0.0 mm 0.00 in0.0 mm 0.00 in0.0 mm
06:21 PM 33.1°F0.6°C 29.4°F-1.4°C 86% 5.0 mph ENE8.0 kmh ENE 8.0 mph12.9 kmh 30.26 in1024.7 mb 0.00 in0.0 mm 0.00 in0.0 mm 0.00 in0.0 mm
06:26 PM 33.1°F0.6°C 29.4°F-1.4°C 86% 4.0 mph NE6.4 kmh NE 7.0 mph11.3 kmh 30.25 in1024.4 mb 0.00 in0.0 mm 0.00 in0.0 mm 0.00 in0.0 mm
06:31 PM 33.0°F0.6°C 29.3°F-1.5°C 86% 4.0 mph NE6.4 kmh NE 8.0 mph12.9 kmh 30.25 in1024.4 mb 0.00 in0.0 mm 0.00 in0.0 mm 0.00 in0.0 mm
06:36 PM 33.0°F0.6°C 29.3°F-1.5°C 86% 6.0 mph NE9.7 kmh NE 8.0 mph12.9 kmh 30.26 in1024.7 mb 0.00 in0.0 mm 0.00 in0.0 mm 0.00 in0.0 mm
06:41 PM 32.9°F0.5°C 29.2°F-1.6°C 86% 5.0 mph NE8.0 kmh NE 8.0 mph12.9 kmh 30.26 in1024.7 mb 0.00 in0.0 mm 0.00 in0.0 mm 0.00 in0.0 mm
06:46 PM 32.9°F0.5°C 29.2°F-1.6°C 86% 2.0 mph NE3.2 kmh NE 8.0 mph12.9 kmh 30.26 in1024.7 mb 0.00 in0.0 mm 0.00 in0.0 mm 0.00 in0.0 mm
06:51 PM 32.9°F0.5°C 29.2°F-1.6°C 86% 4.0 mph NE6.4 kmh NE 7.0 mph11.3 kmh 30.26 in1024.7 mb 0.00 in0.0 mm 0.00 in0.0 mm 0.00 in0.0 mm
06:56 PM 32.9°F0.5°C 29.2°F-1.6°C 86% 3.0 mph ENE4.8 kmh ENE 7.0 mph11.3 kmh 30.26 in1024.7 mb 0.00 in0.0 mm 0.00 in0.0 mm 0.00 in0.0 mm
07:01 PM 33.0°F0.6°C 29.3°F-1.5°C 86% 4.0 mph NE6.4 kmh NE 8.0 mph12.9 kmh 30.25 in1024.4 mb 0.00 in0.0 mm 0.00 in0.0 mm 0.00 in0.0 mm
07:06 PM 33.0°F0.6°C 29.3°F-1.5°C 86% 2.0 mph ENE3.2 kmh ENE 8.0 mph12.9 kmh 30.26 in1024.7 mb 0.00 in0.0 mm 0.00 in0.0 mm 0.00 in0.0 mm
07:11 PM 33.0°F0.6°C 29.3°F-1.5°C 86% 3.0 mph NE4.8 kmh NE 8.0 mph12.9 kmh 30.26 in1024.7 mb 0.00 in0.0 mm 0.00 in0.0 mm 0.00 in0.0 mm
07:16 PM 33.0°F0.6°C 29.3°F-1.5°C 86% 3.0 mph ENE4.8 kmh ENE 8.0 mph12.9 kmh 30.26 in1024.7 mb 0.00 in0.0 mm 0.00 in0.0 mm 0.00 in0.0 mm
07:21 PM 33.0°F0.6°C 29.3°F-1.5°C 86% 4.0 mph NE6.4 kmh NE 6.0 mph9.7 kmh 30.26 in1024.7 mb 0.00 in0.0 mm 0.00 in0.0 mm 0.00 in0.0 mm
07:26 PM 32.9°F0.5°C 29.2°F-1.6°C 86% 3.0 mph NE4.8 kmh NE 8.0 mph12.9 kmh 30.26 in1024.7 mb 0.00 in0.0 mm 0.00 in0.0 mm 0.00 in0.0 mm
07:31 PM 32.9°F0.5°C 29.2°F-1.6°C 86% 5.0 mph NE8.0 kmh NE 8.0 mph12.9 kmh 30.26 in1024.7 mb 0.00 in0.0 mm 0.00 in0.0 mm 0.00 in0.0 mm
07:36 PM 32.9°F0.5°C 29.2°F-1.6°C 86% 3.0 mph NE4.8 kmh NE 8.0 mph12.9 kmh 30.26 in1024.7 mb 0.00 in0.0 mm 0.00 in0.0 mm 0.00 in0.0 mm
07:41 PM 32.9°F0.5°C 29.2°F-1.6°C 86% 3.0 mph ENE4.8 kmh ENE 8.0 mph12.9 kmh 30.26 in1024.7 mb 0.00 in0.0 mm 0.00 in0.0 mm 0.00 in0.0 mm
07:46 PM 32.9°F0.5°C 29.2°F-1.6°C 86% 4.0 mph NNE6.4 kmh NNE 6.0 mph9.7 kmh 30.26 in1024.7 mb 0.00 in0.0 mm 0.00 in0.0 mm 0.00 in0.0 mm
07:51 PM 32.9°F0.5°C 29.2°F-1.6°C 86% 3.0 mph NE4.8 kmh NE 8.0 mph12.9 kmh 30.26 in1024.7 mb 0.00 in0.0 mm 0.00 in0.0 mm 0.00 in0.0 mm
07:56 PM 32.9°F0.5°C 29.5°F-1.4°C 87% 4.0 mph NE6.4 kmh NE 8.0 mph12.9 kmh 30.26 in1024.7 mb 0.00 in0.0 mm 0.00 in0.0 mm 0.00 in0.0 mm
08:01 PM 32.9°F0.5°C 29.5°F-1.4°C 87% 5.0 mph NE8.0 kmh NE 9.0 mph14.5 kmh 30.25 in1024.4 mb 0.00 in0.0 mm 0.00 in0.0 mm 0.00 in0.0 mm
08:06 PM 32.9°F0.5°C 29.5°F-1.4°C 87% 2.0 mph ENE3.2 kmh ENE 9.0 mph14.5 kmh 30.26 in1024.7 mb 0.00 in0.0 mm 0.00 in0.0 mm 0.00 in0.0 mm
08:11 PM 32.9°F0.5°C 29.5°F-1.4°C 87% 6.0 mph E9.7 kmh E 9.0 mph14.5 kmh 30.26 in1024.7 mb 0.00 in0.0 mm 0.00 in0.0 mm 0.00 in0.0 mm
08:16 PM 32.9°F0.5°C 29.5°F-1.4°C 87% 2.0 mph NE3.2 kmh NE 9.0 mph14.5 kmh 30.26 in1024.7 mb 0.00 in0.0 mm 0.00 in0.0 mm 0.00 in0.0 mm
08:21 PM 32.9°F0.5°C 29.5°F-1.4°C 87% Calm Calm 8.0 mph12.9 kmh 30.27 in1025.1 mb 0.00 in0.0 mm 0.00 in0.0 mm 0.00 in0.0 mm
08:26 PM 32.9°F0.5°C 29.5°F-1.4°C 87% Calm Calm 8.0 mph12.9 kmh 30.26 in1024.7 mb 0.00 in0.0 mm 0.00 in0.0 mm 0.00 in0.0 mm
08:31 PM 33.0°F0.6°C 29.6°F-1.3°C 87% 5.0 mph NE8.0 kmh NE 5.0 mph8.0 kmh 30.26 in1024.7 mb 0.00 in0.0 mm 0.00 in0.0 mm 0.00 in0.0 mm
08:36 PM 33.0°F0.6°C 29.6°F-1.3°C 87% 1.0 mph NE1.6 kmh NE 5.0 mph8.0 kmh 30.27 in1025.1 mb 0.00 in0.0 mm 0.00 in0.0 mm 0.00 in0.0 mm
08:41 PM 33.0°F0.6°C 29.6°F-1.3°C 87% Calm Calm 3.0 mph4.8 kmh 30.26 in1024.7 mb 0.00 in0.0 mm 0.00 in0.0 mm 0.00 in0.0 mm
08:46 PM 33.0°F0.6°C 29.6°F-1.3°C 87% Calm Calm 2.0 mph3.2 kmh 30.26 in1024.7 mb 0.00 in0.0 mm 0.00 in0.0 mm 0.00 in0.0 mm
08:51 PM 33.0°F0.6°C 29.6°F-1.3°C 87% 3.0 mph NE4.8 kmh NE 4.0 mph6.4 kmh 30.26 in1024.7 mb 0.00 in0.0 mm 0.00 in0.0 mm 0.00 in0.0 mm
08:56 PM 33.0°F0.6°C 29.6°F-1.3°C 87% 1.0 mph ENE1.6 kmh ENE 3.0 mph4.8 kmh 30.26 in1024.7 mb 0.00 in0.0 mm 0.00 in0.0 mm 0.00 in0.0 mm
09:01 PM 33.0°F0.6°C 29.6°F-1.3°C 87% Calm Calm 2.0 mph3.2 kmh 30.26 in1024.7 mb 0.00 in0.0 mm 0.00 in0.0 mm 0.00 in0.0 mm
09:06 PM 33.0°F0.6°C 29.6°F-1.3°C 87% Calm Calm 2.0 mph3.2 kmh 30.26 in1024.7 mb 0.00 in0.0 mm 0.00 in0.0 mm 0.00 in0.0 mm
09:11 PM 33.0°F0.6°C 29.6°F-1.3°C 87% 2.0 mph ENE3.2 kmh ENE 5.0 mph8.0 kmh 30.26 in1024.7 mb 0.00 in0.0 mm 0.00 in0.0 mm 0.00 in0.0 mm
09:16 PM 33.0°F0.6°C 29.6°F-1.3°C 87% 3.0 mph NE4.8 kmh NE 5.0 mph8.0 kmh 30.26 in1024.7 mb 0.00 in0.0 mm 0.00 in0.0 mm 0.00 in0.0 mm
09:21 PM 32.9°F0.5°C 29.5°F-1.4°C 87% 3.0 mph NE4.8 kmh NE 5.0 mph8.0 kmh 30.26 in1024.7 mb 0.00 in0.0 mm 0.00 in0.0 mm 0.00 in0.0 mm
09:26 PM 33.0°F0.6°C 29.6°F-1.3°C 87% 1.0 mph NE1.6 kmh NE 5.0 mph8.0 kmh 30.26 in1024.7 mb 0.00 in0.0 mm 0.00 in0.0 mm 0.00 in0.0 mm
09:31 PM 33.0°F0.6°C 29.6°F-1.3°C 87% Calm Calm 2.0 mph3.2 kmh 30.26 in1024.7 mb 0.00 in0.0 mm 0.00 in0.0 mm 0.00 in0.0 mm
09:36 PM 33.0°F0.6°C 29.6°F-1.3°C 87% Calm Calm 1.0 mph1.6 kmh 30.26 in1024.7 mb 0.00 in0.0 mm 0.00 in0.0 mm 0.00 in0.0 mm
09:41 PM 33.0°F0.6°C 29.6°F-1.3°C 87% 2.0 mph NE3.2 kmh NE 4.0 mph6.4 kmh 30.25 in1024.4 mb 0.00 in0.0 mm 0.00 in0.0 mm 0.00 in0.0 mm
09:46 PM 33.0°F0.6°C 29.6°F-1.3°C 87% 2.0 mph NE3.2 kmh NE 4.0 mph6.4 kmh 30.26 in1024.7 mb 0.00 in0.0 mm 0.00 in0.0 mm 0.00 in0.0 mm
09:51 PM 33.0°F0.6°C 29.6°F-1.3°C 87% 2.0 mph NE3.2 kmh NE 4.0 mph6.4 kmh 30.26 in1024.7 mb 0.00 in0.0 mm 0.00 in0.0 mm 0.00 in0.0 mm
09:56 PM 33.0°F0.6°C 29.6°F-1.3°C 87% 4.0 mph NE6.4 kmh NE 4.0 mph6.4 kmh 30.26 in1024.7 mb 0.00 in0.0 mm 0.00 in0.0 mm 0.00 in0.0 mm
10:01 PM 33.0°F0.6°C 29.6°F-1.3°C 87% 2.0 mph NE3.2 kmh NE 5.0 mph8.0 kmh 30.26 in1024.7 mb 0.00 in0.0 mm 0.00 in0.0 mm 0.00 in0.0 mm
10:06 PM 33.0°F0.6°C 29.6°F-1.3°C 87% 1.0 mph NE1.6 kmh NE 5.0 mph8.0 kmh 30.26 in1024.7 mb 0.00 in0.0 mm 0.00 in0.0 mm 0.00 in0.0 mm
10:11 PM 33.0°F0.6°C 29.6°F-1.3°C 87% 1.0 mph NE1.6 kmh NE 5.0 mph8.0 kmh 30.26 in1024.7 mb 0.00 in0.0 mm 0.00 in0.0 mm 0.00 in0.0 mm
10:16 PM 33.1°F0.6°C 29.7°F-1.3°C 87% 4.0 mph NE6.4 kmh NE 5.0 mph8.0 kmh 30.26 in1024.7 mb 0.00 in0.0 mm 0.00 in0.0 mm 0.00 in0.0 mm
10:21 PM 33.1°F0.6°C 29.7°F-1.3°C 87% 2.0 mph NE3.2 kmh NE 4.0 mph6.4 kmh 30.26 in1024.7 mb 0.00 in0.0 mm 0.00 in0.0 mm 0.00 in0.0 mm
10:26 PM 33.1°F0.6°C 29.7°F-1.3°C 87% Calm Calm 1.0 mph1.6 kmh 30.26 in1024.7 mb 0.00 in0.0 mm 0.00 in0.0 mm 0.00 in0.0 mm
10:31 PM 33.1°F0.6°C 29.7°F-1.3°C 87% 2.0 mph NE3.2 kmh NE 2.0 mph3.2 kmh 30.26 in1024.7 mb 0.00 in0.0 mm 0.00 in0.0 mm 0.00 in0.0 mm
10:36 PM 33.1°F0.6°C 29.7°F-1.3°C 87% 1.0 mph NE1.6 kmh NE 3.0 mph4.8 kmh 30.26 in1024.7 mb 0.00 in0.0 mm 0.00 in0.0 mm 0.00 in0.0 mm
10:41 PM 33.1°F0.6°C 29.7°F-1.3°C 87% Calm Calm 3.0 mph4.8 kmh 30.26 in1024.7 mb 0.00 in0.0 mm 0.00 in0.0 mm 0.00 in0.0 mm
10:46 PM 33.1°F0.6°C 29.7°F-1.3°C 87% Calm Calm 4.0 mph6.4 kmh 30.26 in1024.7 mb 0.00 in0.0 mm 0.00 in0.0 mm 0.00 in0.0 mm
10:51 PM 33.2°F0.7°C 29.8°F-1.2°C 87% Calm Calm 2.0 mph3.2 kmh 30.26 in1024.7 mb 0.00 in0.0 mm 0.00 in0.0 mm 0.00 in0.0 mm
10:56 PM 33.2°F0.7°C 29.8°F-1.2°C 87% Calm Calm -- 30.26 in1024.7 mb 0.00 in0.0 mm 0.00 in0.0 mm 0.00 in0.0 mm
11:01 PM 33.2°F0.7°C 29.8°F-1.2°C 87% 1.0 mph NE1.6 kmh NE 2.0 mph3.2 kmh 30.25 in1024.4 mb 0.00 in0.0 mm 0.00 in0.0 mm 0.00 in0.0 mm
11:06 PM 33.2°F0.7°C 29.8°F-1.2°C 87% 2.0 mph NE3.2 kmh NE 2.0 mph3.2 kmh 30.25 in1024.4 mb 0.00 in0.0 mm 0.00 in0.0 mm 0.00 in0.0 mm
11:11 PM 33.2°F0.7°C 29.8°F-1.2°C 87% 2.0 mph NE3.2 kmh NE 4.0 mph6.4 kmh 30.25 in1024.4 mb 0.00 in0.0 mm 0.00 in0.0 mm 0.00 in0.0 mm
11:16 PM 33.2°F0.7°C 29.8°F-1.2°C 87% 2.0 mph NE3.2 kmh NE 4.0 mph6.4 kmh 30.25 in1024.4 mb 0.00 in0.0 mm 0.00 in0.0 mm 0.00 in0.0 mm
11:21 PM 33.2°F0.7°C 29.8°F-1.2°C 87% 1.0 mph NE1.6 kmh NE 3.0 mph4.8 kmh 30.25 in1024.4 mb 0.00 in0.0 mm 0.00 in0.0 mm 0.00 in0.0 mm
11:26 PM 33.2°F0.7°C 29.8°F-1.2°C 87% 2.0 mph NNE3.2 kmh NNE 3.0 mph4.8 kmh 30.25 in1024.4 mb 0.00 in0.0 mm 0.00 in0.0 mm 0.00 in0.0 mm
11:31 PM 33.2°F0.7°C 29.8°F-1.2°C 87% 3.0 mph NNE4.8 kmh NNE 4.0 mph6.4 kmh 30.25 in1024.4 mb 0.00 in0.0 mm 0.00 in0.0 mm 0.00 in0.0 mm
11:36 PM 33.2°F0.7°C 29.8°F-1.2°C 87% Calm Calm 4.0 mph6.4 kmh 30.25 in1024.4 mb 0.00 in0.0 mm 0.00 in0.0 mm 0.00 in0.0 mm
11:41 PM 33.1°F0.6°C 29.7°F-1.3°C 87% Calm Calm 5.0 mph8.0 kmh 30.26 in1024.7 mb 0.00 in0.0 mm 0.00 in0.0 mm 0.00 in0.0 mm
11:46 PM 33.1°F0.6°C 29.7°F-1.3°C 87% 2.0 mph NNE3.2 kmh NNE 6.0 mph9.7 kmh 30.26 in1024.7 mb 0.00 in0.0 mm 0.00 in0.0 mm 0.00 in0.0 mm
11:51 PM 33.1°F0.6°C 29.7°F-1.3°C 87% 1.0 mph NNE1.6 kmh NNE 6.0 mph9.7 kmh 30.26 in1024.7 mb 0.00 in0.0 mm 0.00 in0.0 mm 0.00 in0.0 mm
11:56 PM 33.1°F0.6°C 29.7°F-1.3°C 87% 2.0 mph NNE3.2 kmh NNE 6.0 mph9.7 kmh 30.25 in1024.4 mb 0.00 in0.0 mm 0.00 in0.0 mm 0.00 in0.0 mm